• Join FlightAware (Why Join?)
  • Login
  • US Flag 
11:56PM EST


 

Airport Tracker/Info


-or-


 

Live Flight TrackerFlight Track Log ✈ SWA2003 ✈ 01-Mar-2014 ✈ KMKE - KMCO

Flight Track Log - Related Links

Times and Time Zones

All times are in EST time to prevent confusion due to time zone crossing. See the SWA2003 flight status page for this flight to view local times or setup timezone preferences in your user account.

Time Position Orientation Groundspeed Altitude Reporting Facility
EST Latitude Longitude Course Direction KTS MPH feet Rate Location/Type
09:42AM 42.9667 -87.9000 36° Northeast 162 186 1,800  Level KMKE
09:42AM 42.9833 -87.8833 36° Northeast 163 188 2,600 2,160 Climbing KMKE
09:43AM 42.9819 -87.8269 92° East 240 276 4,600 2,280 Climbing Chicago Center
09:44AM 42.9142 -87.8244 178° South 250 288 7,000 2,640 Climbing Chicago Center
09:45AM 42.8400 -87.8222 179° South 262 302 10,100 2,280 Climbing Chicago Center
09:46AM 42.7547 -87.8214 180° South 303 349 11,700 1,920 Climbing Chicago Center
09:47AM 42.6603 -87.8194 179° South 336 387 14,100 2,160 Climbing Chicago Center
09:48AM 42.5592 -87.8194 180° South 357 411 16,200 2,040 Climbing Chicago Center
09:49AM 42.4539 -87.8181 179° South 374 430 18,400 2,100 Climbing Chicago Center
09:50AM 42.3447 -87.8169 180° South 388 447 20,500 1,860 Climbing Chicago Center
09:51AM 42.2186 -87.8164 180° South 405 466 22,300 1,800 Climbing Chicago Center
09:52AM 42.1025 -87.8142 179° South 416 479 24,200 1,560 Climbing Chicago Center
09:53AM 41.9842 -87.8139 180° South 423 487 25,500 1,380 Climbing Chicago Center
09:54AM 41.8631 -87.8089 178° South 432 497 27,100 1,320 Climbing Chicago Center
09:55AM 41.7392 -87.8089 180° South 441 507 28,300 1,380 Climbing Chicago Center
09:56AM 41.6136 -87.8061 179° South 447 514 30,000 1,560 Climbing Chicago Center
09:57AM 41.4894 -87.8056 180° South 442 509 31,600 1,260 Climbing Chicago Center
09:58AM 41.3667 -87.8033 179° South 436 502 32,600 840 Climbing Chicago Center
09:59AM 41.2400 -87.8025 180° South 444 511 33,400 1,140 Climbing Chicago Center
10:00AM 41.1153 -87.8000 179° South 447 514 35,000 780 Climbing Chicago Center
10:01AM 40.9694 -87.7983 180° South 438 504 35,000  Level Chicago Center
10:03AM 40.8458 -87.7817 174° South 447 514 35,000  Level Chicago Center
10:04AM 40.7183 -87.7486 169° South 465 535 35,000  Level Chicago Center
10:05AM 40.5939 -87.7175 169° South 458 527 35,000  Level Chicago Center
10:06AM 40.4692 -87.6867 169° South 455 524 35,000  Level Chicago Center
10:07AM 40.3439 -87.6556 169° South 458 527 35,000  Level Chicago Center
10:08AM 40.2172 -87.6250 170° South 460 529 35,000  Level Chicago Center
10:09AM 40.0850 -87.5925 169° South 463 533 35,000  Level Chicago Center
10:10AM 39.9578 -87.5611 169° South 465 535 35,000  Level Chicago Center
10:11AM 39.8297 -87.5319 170° South 468 539 35,000  Level Chicago Center
10:12AM 39.7022 -87.5025 170° South 467 537 35,000  Level Chicago Center
10:13AM 39.5742 -87.4708 169° South 469 540 35,000  Level Chicago Center
10:14AM 39.4189 -87.4325 169° South 466 536 35,000  Level Indianapolis Center
10:15AM 39.2914 -87.4025 170° South 466 536 35,000  Level Indianapolis Center
10:16AM 39.1658 -87.3733 170° South 466 536 35,000  Level Indianapolis Center
10:17AM 39.0331 -87.3414 169° South 466 536 35,000  Level Indianapolis Center
10:18AM 38.9061 -87.3125 170° South 465 535 35,000  Level Indianapolis Center
10:19AM 38.7808 -87.2819 169° South 460 529 35,000  Level Indianapolis Center
10:20AM 38.6564 -87.2542 170° South 457 526 35,000  Level Indianapolis Center
10:21AM 38.5317 -87.2244 169° South 457 526 35,000  Level Indianapolis Center
10:22AM 38.4081 -87.1961 170° South 457 526 35,000  Level Indianapolis Center
10:23AM 38.2672 -87.1636 170° South 457 526 35,000  Level Indianapolis Center
10:24AM 38.1397 -87.1336 170° South 457 526 35,000  Level Indianapolis Center
10:25AM 38.0144 -87.1050 170° South 457 526 35,000  Level Indianapolis Center
10:26AM 37.8875 -87.0761 170° South 457 526 35,000  Level Indianapolis Center
10:27AM 37.7606 -87.0469 170° South 459 528 35,000  Level Indianapolis Center
10:28AM 37.6325 -87.0178 170° South 462 532 35,000  Level Indianapolis Center
10:29AM 37.4942 -86.9858 170° South 465 535 35,000  Level Indianapolis Center
10:30AM 37.3642 -86.9569 170° South 467 537 35,000  Level Indianapolis Center
10:31AM 37.2331 -86.9269 170° South 469 540 35,000  Level Indianapolis Center
10:32AM 37.1231 -86.9022 170° South 473 544 35,000  Level Memphis Center
10:33AM 36.9903 -86.8728 170° South 474 545 35,000  Level Memphis Center
10:34AM 36.8578 -86.8433 170° South 477 549 35,000  Level Memphis Center
10:35AM 36.7242 -86.8142 170° South 478 550 35,000  Level Memphis Center
10:36AM 36.5906 -86.7836 170° South 480 552 35,000  Level Memphis Center
10:37AM 36.4547 -86.7533 170° South 480 552 35,000  Level Memphis Center
10:38AM 36.3164 -86.7236 170° South 483 556 35,000  Level Memphis Center
10:39AM 36.1800 -86.6944 170° South 483 556 35,000  Level Memphis Center
10:40AM 36.0536 -86.6106 152° Southeast 511 588 35,000  Level Memphis Center
10:41AM 35.9158 -86.4814 143° Southeast 523 602 35,000  Level Memphis Center
10:42AM 35.7972 -86.3703 143° Southeast 526 605 35,000  Level Memphis Center
10:43AM 35.6781 -86.2608 143° Southeast 526 605 35,000  Level Memphis Center
10:44AM 35.5553 -86.1483 143° Southeast 528 608 35,000  Level Memphis Center
10:45AM 35.4381 -86.0411 143° Southeast 529 609 35,000  Level Memphis Center
10:46AM 35.3197 -85.9339 144° Southeast 529 609 35,000  Level Memphis Center
10:47AM 35.1797 -85.8072 144° Southeast 532 612 35,000  Level Atlanta Center
10:48AM 35.0603 -85.7008 144° Southeast 532 612 35,000  Level Atlanta Center
10:49AM 34.9428 -85.5944 143° Southeast 532 612 35,000  Level Atlanta Center
10:50AM 34.8231 -85.4861 143° Southeast 532 612 35,000  Level Atlanta Center
10:51AM 34.7031 -85.3806 144° Southeast 537 618 35,000  Level Atlanta Center
10:52AM 34.5833 -85.2775 145° Southeast 537 618 35,000  Level Atlanta Center
10:53AM 34.4903 -85.1906 142° Southeast 537 618 35,000  Level Atlanta Center
10:54AM 34.3639 -85.0731 142° Southeast 537 618 35,000  Level Atlanta Center
10:55AM 34.2436 -84.9711 145° Southeast 529 609 35,000  Level Atlanta Center
10:56AM 34.1233 -84.8669 144° Southeast 535 616 35,000  Level Atlanta Center
10:57AM 33.9906 -84.7553 145° Southeast 540 621 35,000  Level Atlanta Center
10:58AM 33.8719 -84.6492 143° Southeast 540 621 35,000  Level Atlanta Center
10:59AM 33.7514 -84.5461 145° Southeast 540 621 35,000  Level Atlanta Center
11:00AM 33.6308 -84.4456 145° Southeast 540 621 35,000  Level Atlanta Center
11:01AM 33.5100 -84.3900 159° South 519 597 35,000  Level Atlanta Center
11:02AM 33.3764 -84.3350 161° South 513 590 35,000  Level Atlanta Center
11:03AM 33.2325 -84.2747 161° South 501 577 35,000  Level Atlanta Center
11:04AM 33.1033 -84.2197 160° South 506 582 35,000  Level Atlanta Center
11:05AM 32.9842 -84.1700 161° South 501 577 35,000  Level Atlanta Center
11:06AM 32.8528 -84.1156 161° South 501 577 35,000  Level Atlanta Center
11:07AM 32.7192 -84.0611 161° South 501 577 35,000  Level Atlanta Center
11:08AM 32.5897 -84.0044 160° South 501 577 35,000  Level Atlanta Center
11:09AM 32.4625 -83.9281 153° Southeast 506 582 35,000  Level Atlanta Center
11:10AM 32.3350 -83.8469 152° Southeast 511 588 35,000  Level Atlanta Center
11:11AM 32.2139 -83.7711 152° Southeast 511 588 35,000  Level Atlanta Center
11:13AM 32.0431 -83.6694 153° Southeast 518 596 35,000  Level Jacksonville Center
11:14AM 31.9058 -83.5853 152° Southeast 511 588 35,000  Level Jacksonville Center
11:15AM 31.7808 -83.5231 157° South 389 448 35,000  Level Jacksonville Center
11:16AM 31.6658 -83.5542 193° South 407 468 35,000  Level Jacksonville Center
11:17AM 31.5631 -83.6167 207° Southwest 412 474 35,000  Level Jacksonville Center
11:18AM 31.4647 -83.6794 209° Southwest 412 474 35,000  Level Jacksonville Center
11:19AM 31.3436 -83.6514 169° South 412 474 35,000  Level Jacksonville Center
11:20AM 31.2272 -83.5608 146° Southeast 428 493 35,000  Level Jacksonville Center
11:21AM 31.1192 -83.4606 142° Southeast 457 526 35,000 -300 Level Jacksonville Center
11:22AM 31.0089 -83.3628 143° Southeast 486 559 34,400 -1,860 Descending Jacksonville Center
11:23AM 30.8944 -83.2606 143° Southeast 501 577 31,400 -3,000 Descending Jacksonville Center
11:24AM 30.7819 -83.1586 142° Southeast 506 582 28,500 -2,280 Descending Jacksonville Center
11:25AM 30.6694 -83.0592 143° Southeast 511 588 26,900 -780 Descending Jacksonville Center
11:26AM 30.5631 -82.9650 143° Southeast 499 574 27,000  Climbing Jacksonville Center
11:27AM 30.4544 -82.8708 143° Southeast 491 565 27,000 -300 Level Jacksonville Center
11:28AM 30.3478 -82.7769 143° Southeast 486 559 26,500 -720 Descending Jacksonville Center
11:29AM 30.2372 -82.6811 143° Southeast 486 559 25,600 -780 Descending Jacksonville Center
11:30AM 30.1178 -82.5803 144° Southeast 486 559 25,000 -300 Descending Jacksonville Center
11:31AM 30.0133 -82.4872 142° Southeast 481 554 25,000  Level Jacksonville Center
11:32AM 29.8961 -82.4253 155° Southeast 475 547 25,000  Level Jacksonville Center
11:33AM 29.7728 -82.3828 163° South 461 531 25,000  Level Jacksonville Center
11:34AM 29.6494 -82.3381 163° South 466 536 25,000  Level Jacksonville Center
11:35AM 29.5281 -82.2936 162° South 460 529 25,000 -1,020 Level Jacksonville Center
11:36AM 29.4108 -82.2275 154° Southeast 460 529 23,000 -2,640 Descending Jacksonville Center
11:37AM 29.2936 -82.1617 154° Southeast 466 536 19,800 -2,820 Descending Jacksonville Center
11:38AM 29.1764 -82.0958 154° Southeast 466 536 17,400 -2,460 Descending Jacksonville Center
11:39AM 29.0653 -82.0325 154° Southeast 460 529 14,900 -2,400 Descending Jacksonville Center
11:40AM 28.9628 -81.9767 155° Southeast 440 506 12,600 -1,980 Descending Jacksonville Center
11:41AM 28.8725 -81.9133 148° Southeast 407 468 11,000 -1,380 Descending Jacksonville Center
11:42AM 28.8333 -81.8500 125° Southeast 346 398 10,300 -960 Descending Orlando TRACON
11:43AM 28.7833 -81.7667 124° Southeast 310 357 9,400 -660 Descending Orlando TRACON
11:44AM 28.7333 -81.6833 124° Southeast 301 346 9,000 -240 Descending Orlando TRACON
11:45AM 28.7000 -81.6000 114° Southeast 304 350 9,000  Level Orlando TRACON
11:46AM 28.6500 -81.5167 124° Southeast 307 353 9,000  Level Orlando TRACON
11:47AM 28.6000 -81.4333 124° Southeast 303 349 9,000 -120 Level Orlando TRACON
11:48AM 28.5333 -81.4167 168° South 254 292 8,800 -600 Descending Orlando TRACON
11:49AM 28.4667 -81.4167 180° South 237 273 7,800 -1,080 Descending Orlando TRACON
11:50AM 28.4000 -81.4167 180° South 239 275 6,700 -1,140 Descending Orlando TRACON
11:51AM 28.3333 -81.4167 180° South 230 265 5,600 -900 Descending Orlando TRACON
11:52AM 28.2667 -81.4167 180° South 224 258 5,000 -300 Descending Orlando TRACON
11:53AM 28.2000 -81.4167 180° South 218 251 5,000 -360 Level Orlando TRACON
11:54AM 28.1667 -81.3833 139° Southeast 176 203 4,300 -900 Descending Orlando TRACON
11:55AM 28.1833 -81.3333 69° East 174 200 3,200 -600 Descending Orlando TRACON
11:56AM 28.2167 -81.3167 24° Northeast 175 201 3,100 -120 Descending Orlando TRACON
11:57AM 28.2667 -81.3167 360° North 177 204 3,000 -600 Descending Orlando TRACON
11:58AM 28.3167 -81.3167 360° North 186 214 2,000 -960 Descending Orlando TRACON
11:59AM 28.3667 -81.3167 360° North 156 180 1,100 -780 Descending Orlando TRACON
12:00PM 28.4000 -81.3167 360° North 134 154 500 -600 Descending Orlando TRACON
12:02PM 28.4167 -81.3000 24° Northeast  Level FlightAware Approximate
12:09PM 28.4294 -81.3090 24° Northeast  Level Estimated
12:10PM 28.4294 -81.3090 24° Northeast  Level Estimated
12:11PM 28.4294 -81.3090 24° Northeast  Level Estimated